Time;durP1;ratioP1;P1;durP2;ratioP2;P2;SDS_P1;SDS_P2;PMS_P1;PMS_P2;Temp;Humidity;BMP_temperature;BMP_pressure;BME280_temperature;BME280_humidity;BME280_pressure;Samples;Min_cycle;Max_cycle;Signal;HPM_P1;HPM_P2
2023/05/26 00:00:40;;;;;;;6.18;6.07;;;;;;;;;;4236709;28;20074;-59
2023/05/26 00:03:02;;;;;;;5.00;4.90;;;;;;;;;;4242230;28;20391;-58
2023/05/26 00:05:25;;;;;;;5.28;5.07;;;;;;;;;;4238900;28;20107;-58
2023/05/26 00:07:45;;;;;;;4.78;4.53;;;;;;;;;;4238955;28;20401;-58
2023/05/26 00:10:06;;;;;;;4.28;3.92;;;;;;;;;;4236226;28;20070;-58
2023/05/26 00:12:26;;;;;;;4.80;4.55;;;;;;;;;;4237454;28;20051;-58
2023/05/26 00:14:47;;;;;;;5.10;4.70;;;;;;;;;;4243172;28;20047;-59
2023/05/26 00:17:08;;;;;;;4.18;3.88;;;;;;;;;;4243984;28;20051;-58
2023/05/26 00:19:28;;;;;;;4.30;4.20;;;;;;;;;;4238976;28;20050;-58
2023/05/26 00:21:48;;;;;;;4.90;4.75;;;;;;;;;;4244791;28;20088;-59
2023/05/26 00:24:08;;;;;;;4.57;4.18;;;;;;;;;;4244304;28;20067;-58
2023/05/26 00:26:28;;;;;;;4.95;4.75;;;;;;;;;;4238787;28;20051;-59
2023/05/26 00:28:48;;;;;;;7.05;4.72;;;;;;;;;;4238898;28;20253;-58
2023/05/26 00:31:09;;;;;;;5.22;5.03;;;;;;;;;;4243614;28;20366;-59
2023/05/26 00:33:29;;;;;;;5.35;4.88;;;;;;;;;;4240727;28;20051;-58
2023/05/26 00:35:50;;;;;;;5.32;5.13;;;;;;;;;;4236935;28;20089;-59
2023/05/26 00:38:10;;;;;;;5.07;4.88;;;;;;;;;;4247322;28;20370;-59
2023/05/26 00:40:32;;;;;;;4.35;3.65;;;;;;;;;;4246092;27;20046;-59
2023/05/26 00:42:53;;;;;;;5.60;5.35;;;;;;;;;;4245134;28;20046;-59
2023/05/26 00:45:13;;;;;;;5.18;4.68;;;;;;;;;;4242497;28;20272;-58
2023/05/26 00:47:33;;;;;;;5.40;5.25;;;;;;;;;;4245147;28;20050;-58
2023/05/26 00:49:53;;;;;;;5.18;4.82;;;;;;;;;;4242931;28;20362;-59
2023/05/26 00:52:14;;;;;;;7.10;6.45;;;;;;;;;;4239051;28;20046;-58
2023/05/26 00:54:34;;;;;;;4.80;4.57;;;;;;;;;;4243968;28;20076;-58
2023/05/26 00:56:55;;;;;;;6.38;6.05;;;;;;;;;;4247479;28;20073;-59
2023/05/26 00:59:15;;;;;;;6.35;5.95;;;;;;;;;;4239476;28;20043;-59
2023/05/26 01:01:36;;;;;;;6.93;6.13;;;;;;;;;;4238982;28;20111;-59
2023/05/26 01:03:56;;;;;;;8.02;7.35;;;;;;;;;;4243996;28;20105;-59
2023/05/26 01:06:17;;;;;;;7.15;6.88;;;;;;;;;;4247053;28;20065;-59
2023/05/26 01:08:37;;;;;;;5.68;5.50;;;;;;;;;;4237224;28;20047;-59
2023/05/26 01:11:00;;;;;;;5.30;5.20;;;;;;;;;;4242777;28;20043;-59
2023/05/26 01:13:25;;;;;;;5.20;5.00;;;;;;;;;;4243464;28;20119;-59
2023/05/26 01:15:49;;;;;;;6.43;6.22;;;;;;;;;;4244057;28;20324;-59
2023/05/26 01:18:13;;;;;;;5.88;5.75;;;;;;;;;;4236358;28;20050;-59
2023/05/26 01:20:43;;;;;;;6.43;6.03;;;;;;;;;;4243109;28;20115;-59
2023/05/26 01:23:18;;;;;;;6.47;6.07;;;;;;;;;;4244857;28;20050;-59
2023/05/26 01:25:51;;;;;;;6.38;6.28;;;;;;;;;;4240613;28;20407;-59
2023/05/26 01:28:21;;;;;;;5.85;5.75;;;;;;;;;;4241053;28;20428;-59
2023/05/26 01:30:43;;;;;;;7.90;5.97;;;;;;;;;;4240585;28;20115;-59
2023/05/26 01:33:03;;;;;;;6.40;6.20;;;;;;;;;;4241510;28;20144;-59
2023/05/26 01:35:23;;;;;;;5.28;4.97;;;;;;;;;;4237765;28;20055;-59
2023/05/26 01:37:45;;;;;;;6.82;6.22;;;;;;;;;;4242751;28;20088;-58
2023/05/26 01:40:06;;;;;;;6.53;6.43;;;;;;;;;;4239662;28;20050;-59
2023/05/26 01:42:28;;;;;;;5.00;4.82;;;;;;;;;;4242893;28;20043;-59
2023/05/26 01:44:56;;;;;;;6.30;5.95;;;;;;;;;;4240372;28;20051;-59
2023/05/26 01:47:17;;;;;;;6.35;6.10;;;;;;;;;;4241056;28;20067;-59
2023/05/26 01:49:38;;;;;;;6.88;6.32;;;;;;;;;;4239556;28;20121;-59
2023/05/26 01:52:01;;;;;;;7.22;6.75;;;;;;;;;;4239938;28;20042;-59
2023/05/26 01:54:22;;;;;;;7.75;7.35;;;;;;;;;;4240632;28;20054;-58
2023/05/26 01:56:44;;;;;;;7.85;7.25;;;;;;;;;;4237256;28;20116;-58
2023/05/26 01:59:06;;;;;;;6.80;6.60;;;;;;;;;;4242487;28;20384;-59
2023/05/26 02:01:26;;;;;;;6.50;6.35;;;;;;;;;;4236324;28;20085;-58
2023/05/26 02:03:47;;;;;;;6.30;6.10;;;;;;;;;;4242965;28;20051;-59
2023/05/26 02:06:08;;;;;;;5.20;5.10;;;;;;;;;;4237227;28;20054;-59
2023/05/26 02:08:29;;;;;;;6.03;5.90;;;;;;;;;;4240634;28;20046;-59
2023/05/26 02:10:49;;;;;;;6.07;5.70;;;;;;;;;;4241360;28;20051;-59
2023/05/26 02:13:09;;;;;;;6.20;5.80;;;;;;;;;;4242541;28;20050;-59
2023/05/26 02:15:30;;;;;;;6.55;5.97;;;;;;;;;;4240401;28;20038;-59
2023/05/26 02:17:54;;;;;;;6.25;5.95;;;;;;;;;;4241943;28;20047;-59
2023/05/26 02:20:16;;;;;;;5.22;4.90;;;;;;;;;;4239794;28;20050;-58
2023/05/26 02:22:36;;;;;;;6.25;5.72;;;;;;;;;;4244474;28;20370;-59
2023/05/26 02:24:57;;;;;;;5.85;5.47;;;;;;;;;;4235903;28;20423;-59
2023/05/26 02:27:17;;;;;;;5.85;5.75;;;;;;;;;;4243330;28;20077;-59
2023/05/26 02:29:37;;;;;;;5.57;5.47;;;;;;;;;;4242522;28;20051;-59
2023/05/26 02:31:57;;;;;;;5.75;5.47;;;;;;;;;;4244766;28;20097;-59
2023/05/26 02:34:18;;;;;;;5.43;5.32;;;;;;;;;;4232294;28;20047;-59
2023/05/26 02:36:38;;;;;;;5.40;5.20;;;;;;;;;;4243992;28;20049;-60
2023/05/26 02:38:59;;;;;;;6.68;6.22;;;;;;;;;;4247906;28;20086;-59
2023/05/26 02:41:20;;;;;;;5.65;5.38;;;;;;;;;;4241544;27;20141;-59
2023/05/26 02:43:40;;;;;;;5.80;5.50;;;;;;;;;;4240607;28;20059;-60
2023/05/26 02:46:00;;;;;;;5.78;5.10;;;;;;;;;;4241540;28;20088;-60
2023/05/26 02:48:21;;;;;;;6.38;6.25;;;;;;;;;;4243409;28;20108;-59
2023/05/26 02:50:41;;;;;;;5.93;5.55;;;;;;;;;;4235943;28;20057;-59
2023/05/26 02:53:02;;;;;;;4.93;4.72;;;;;;;;;;4243237;28;20370;-59
2023/05/26 02:55:24;;;;;;;4.88;4.78;;;;;;;;;;4241647;28;20069;-60
2023/05/26 02:57:45;;;;;;;5.30;4.88;;;;;;;;;;4241682;28;20577;-60
2023/05/26 03:00:12;;;;;;;5.70;5.50;;;;;;;;;;4236819;28;20080;-60
2023/05/26 03:02:32;;;;;;;5.55;5.28;;;;;;;;;;4243088;28;20047;-59
2023/05/26 03:04:53;;;;;;;5.40;5.30;;;;;;;;;;4240728;28;20062;-59
2023/05/26 03:07:13;;;;;;;4.82;4.72;;;;;;;;;;4245662;28;20099;-59
2023/05/26 03:09:33;;;;;;;4.30;3.72;;;;;;;;;;4250127;28;20081;-60
2023/05/26 03:11:53;;;;;;;5.28;4.57;;;;;;;;;;4242422;28;20050;-60
2023/05/26 03:14:14;;;;;;;8.32;5.05;;;;;;;;;;4242053;28;20086;-59
2023/05/26 03:16:34;;;;;;;5.05;4.95;;;;;;;;;;4240253;28;20046;-60
2023/05/26 03:18:55;;;;;;;4.57;4.47;;;;;;;;;;4241431;28;20067;-60
2023/05/26 03:21:16;;;;;;;5.75;4.72;;;;;;;;;;4242730;28;20277;-60
2023/05/26 03:23:56;;;;;;;7.13;6.93;;;;;;;;;;4239145;28;20042;-60
2023/05/26 03:26:17;;;;;;;6.00;5.90;;;;;;;;;;4244959;28;20054;-60
2023/05/26 03:28:37;;;;;;;7.15;5.07;;;;;;;;;;4240686;28;20366;-59
2023/05/26 03:30:58;;;;;;;5.85;5.38;;;;;;;;;;4246113;28;20211;-60
2023/05/26 03:33:19;;;;;;;5.20;5.10;;;;;;;;;;4241219;28;20272;-60
2023/05/26 03:35:39;;;;;;;4.68;4.47;;;;;;;;;;4240884;28;20161;-60
2023/05/26 03:38:00;;;;;;;5.57;5.35;;;;;;;;;;4238655;28;20082;-59
2023/05/26 03:40:20;;;;;;;4.07;3.97;;;;;;;;;;4239358;28;20100;-59
2023/05/26 03:42:40;;;;;;;4.32;4.22;;;;;;;;;;4244972;28;20065;-60
2023/05/26 03:45:00;;;;;;;5.65;5.38;;;;;;;;;;4246621;28;20046;-60
2023/05/26 03:47:20;;;;;;;5.38;5.20;;;;;;;;;;4245874;28;20050;-59
2023/05/26 03:49:40;;;;;;;6.10;5.80;;;;;;;;;;4243218;28;20092;-60
2023/05/26 03:52:01;;;;;;;5.57;5.22;;;;;;;;;;4244859;28;20116;-60
2023/05/26 03:54:21;;;;;;;5.97;5.88;;;;;;;;;;4243063;28;20057;-60
2023/05/26 03:56:41;;;;;;;5.47;5.28;;;;;;;;;;4241446;28;20354;-60
2023/05/26 03:59:02;;;;;;;6.55;5.65;;;;;;;;;;4244091;28;20083;-60
2023/05/26 04:01:22;;;;;;;5.85;5.65;;;;;;;;;;4240929;28;20073;-60
2023/05/26 04:03:43;;;;;;;5.90;5.70;;;;;;;;;;4239323;28;20060;-60
2023/05/26 04:06:08;;;;;;;5.18;5.07;;;;;;;;;;4239935;28;20038;-60
2023/05/26 04:08:30;;;;;;;4.68;4.57;;;;;;;;;;4242933;28;20045;-60
2023/05/26 04:10:50;;;;;;;5.03;4.93;;;;;;;;;;4235619;28;20046;-60
2023/05/26 04:13:11;;;;;;;5.20;5.10;;;;;;;;;;4231952;28;20095;-60
2023/05/26 04:15:32;;;;;;;6.40;5.95;;;;;;;;;;4240410;28;20122;-60
2023/05/26 04:17:52;;;;;;;5.88;5.53;;;;;;;;;;4237189;28;20046;-60
2023/05/26 04:20:13;;;;;;;4.78;4.68;;;;;;;;;;4232304;28;20084;-60
2023/05/26 04:22:34;;;;;;;6.38;6.03;;;;;;;;;;4239453;28;20243;-60
2023/05/26 04:24:55;;;;;;;6.15;5.70;;;;;;;;;;4236728;28;20110;-60
2023/05/26 04:27:15;;;;;;;5.93;5.80;;;;;;;;;;4234013;28;20080;-60
2023/05/26 04:29:36;;;;;;;6.93;6.63;;;;;;;;;;4234191;28;20062;-61
2023/05/26 04:31:58;;;;;;;6.43;6.07;;;;;;;;;;4245908;28;20081;-60
2023/05/26 04:34:21;;;;;;;7.25;6.63;;;;;;;;;;4252998;28;20054;-60
2023/05/26 04:36:41;;;;;;;5.97;5.78;;;;;;;;;;4250811;27;20441;-60
2023/05/26 04:39:01;;;;;;;7.03;6.68;;;;;;;;;;4246424;28;20057;-60
2023/05/26 04:41:21;;;;;;;7.97;7.47;;;;;;;;;;4243693;28;20047;-60
2023/05/26 04:43:43;;;;;;;7.00;6.80;;;;;;;;;;4246927;28;20047;-60
2023/05/26 04:46:03;;;;;;;7.20;6.85;;;;;;;;;;4243809;28;20069;-60
2023/05/26 04:48:24;;;;;;;6.18;6.07;;;;;;;;;;4243904;28;20050;-60
2023/05/26 04:50:45;;;;;;;5.72;5.35;;;;;;;;;;4245555;28;20077;-62
2023/05/26 04:53:06;;;;;;;5.45;5.35;;;;;;;;;;4240922;28;20100;-62
2023/05/26 04:55:26;;;;;;;6.80;6.45;;;;;;;;;;4243490;28;20242;-62
2023/05/26 04:57:46;;;;;;;6.53;6.32;;;;;;;;;;4242125;28;20047;-62
2023/05/26 05:00:09;;;;;;;5.95;5.65;;;;;;;;;;4243347;28;20047;-62
2023/05/26 05:02:30;;;;;;;5.47;5.22;;;;;;;;;;4238305;28;20049;-63
2023/05/26 05:04:50;;;;;;;7.60;6.07;;;;;;;;;;4240461;28;20042;-60
2023/05/26 05:07:10;;;;;;;5.78;5.35;;;;;;;;;;4240131;28;20082;-60
2023/05/26 05:09:30;;;;;;;4.90;4.75;;;;;;;;;;4242232;28;20042;-60
2023/05/26 05:11:51;;;;;;;6.10;5.57;;;;;;;;;;4238174;28;20179;-60
2023/05/26 05:14:11;;;;;;;6.40;6.07;;;;;;;;;;4239845;28;20227;-60
2023/05/26 05:16:31;;;;;;;6.32;5.85;;;;;;;;;;4242216;28;20050;-60
2023/05/26 05:18:53;;;;;;;5.80;5.32;;;;;;;;;;4256666;27;20049;-60
2023/05/26 05:21:13;;;;;;;6.28;6.07;;;;;;;;;;4240008;28;20049;-60
2023/05/26 05:23:34;;;;;;;6.05;5.75;;;;;;;;;;4240318;28;20302;-60
2023/05/26 05:25:55;;;;;;;5.47;5.13;;;;;;;;;;4240511;28;20050;-60
2023/05/26 05:28:15;;;;;;;5.82;5.72;;;;;;;;;;4240802;28;20084;-60
2023/05/26 05:30:35;;;;;;;5.05;4.85;;;;;;;;;;4241751;28;20076;-60
2023/05/26 05:32:55;;;;;;;6.32;5.72;;;;;;;;;;4238620;28;20238;-60
2023/05/26 05:35:16;;;;;;;6.47;6.18;;;;;;;;;;4240492;28;20236;-58
2023/05/26 05:37:37;;;;;;;7.10;6.57;;;;;;;;;;4242452;28;20050;-58
2023/05/26 05:39:57;;;;;;;6.35;5.93;;;;;;;;;;4238956;28;20070;-58
2023/05/26 05:42:18;;;;;;;6.70;6.13;;;;;;;;;;4238788;28;20055;-58
2023/05/26 05:44:38;;;;;;;5.78;5.68;;;;;;;;;;4241772;28;20046;-58
2023/05/26 05:46:58;;;;;;;5.90;5.53;;;;;;;;;;4241932;28;20538;-58
2023/05/26 05:49:19;;;;;;;6.00;5.57;;;;;;;;;;4236885;28;20085;-58
2023/05/26 05:51:39;;;;;;;7.30;4.88;;;;;;;;;;4243342;28;20045;-58
2023/05/26 05:54:00;;;;;;;5.80;5.45;;;;;;;;;;4243201;28;20050;-58
2023/05/26 05:56:20;;;;;;;5.65;5.45;;;;;;;;;;4241540;28;20045;-57
2023/05/26 05:58:41;;;;;;;5.25;4.93;;;;;;;;;;4240913;28;20072;-58
2023/05/26 06:01:01;;;;;;;4.78;4.50;;;;;;;;;;4247355;28;20043;-58
2023/05/26 06:03:21;;;;;;;4.72;4.55;;;;;;;;;;4244955;28;20065;-58
2023/05/26 06:05:42;;;;;;;5.10;5.00;;;;;;;;;;4244373;28;20051;-58
2023/05/26 06:08:02;;;;;;;6.10;5.70;;;;;;;;;;4241468;28;20042;-57
2023/05/26 06:10:22;;;;;;;4.47;4.30;;;;;;;;;;4244511;28;20070;-58
2023/05/26 06:12:43;;;;;;;4.78;4.55;;;;;;;;;;4241021;28;20051;-58
2023/05/26 06:15:03;;;;;;;4.70;4.60;;;;;;;;;;4242899;28;20039;-58
2023/05/26 06:17:23;;;;;;;3.97;3.88;;;;;;;;;;4239179;28;20055;-58
2023/05/26 06:19:44;;;;;;;4.10;3.90;;;;;;;;;;4242597;28;20034;-58
2023/05/26 06:22:04;;;;;;;5.05;4.68;;;;;;;;;;4237165;28;20043;-58
2023/05/26 06:24:24;;;;;;;5.05;4.63;;;;;;;;;;4255486;27;20087;-59
2023/05/26 06:26:44;;;;;;;7.28;4.40;;;;;;;;;;4238827;28;20046;-58
2023/05/26 06:29:04;;;;;;;4.53;4.30;;;;;;;;;;4238601;28;20051;-59
2023/05/26 06:31:25;;;;;;;3.65;3.45;;;;;;;;;;4240474;28;20046;-59
2023/05/26 06:33:46;;;;;;;3.60;3.35;;;;;;;;;;4240218;28;20043;-58
2023/05/26 06:36:06;;;;;;;3.55;3.45;;;;;;;;;;4239324;28;20056;-58
2023/05/26 06:38:26;;;;;;;3.55;3.35;;;;;;;;;;4239946;28;20088;-58
2023/05/26 06:40:47;;;;;;;3.30;3.20;;;;;;;;;;4238332;28;20373;-59
2023/05/26 06:43:07;;;;;;;3.65;3.45;;;;;;;;;;4241880;28;20070;-58
2023/05/26 06:45:28;;;;;;;3.67;3.58;;;;;;;;;;4235566;28;20141;-58
2023/05/26 06:47:48;;;;;;;2.53;2.35;;;;;;;;;;4242661;28;20074;-59
2023/05/26 06:50:08;;;;;;;3.50;3.22;;;;;;;;;;4242639;28;20299;-59
2023/05/26 06:52:29;;;;;;;3.58;3.42;;;;;;;;;;4241149;28;20373;-58
2023/05/26 06:54:49;;;;;;;2.67;2.55;;;;;;;;;;4239028;28;20262;-58
2023/05/26 06:57:10;;;;;;;3.20;3.08;;;;;;;;;;4240866;28;20373;-59
2023/05/26 06:59:30;;;;;;;3.17;3.08;;;;;;;;;;4243912;27;20099;-58
2023/05/26 07:01:50;;;;;;;3.22;2.40;;;;;;;;;;4240324;28;20055;-58
2023/05/26 07:04:11;;;;;;;5.38;2.58;;;;;;;;;;4240754;28;20121;-59
2023/05/26 07:06:32;;;;;;;3.42;3.20;;;;;;;;;;4239454;28;20295;-58
2023/05/26 07:09:07;;;;;;;2.50;2.30;;;;;;;;;;4243300;28;20051;-58
2023/05/26 07:11:27;;;;;;;2.45;2.33;;;;;;;;;;4243562;28;20265;-59
2023/05/26 07:13:52;;;;;;;2.45;2.25;;;;;;;;;;4238089;28;20045;-58
2023/05/26 07:16:12;;;;;;;1.98;1.80;;;;;;;;;;4235725;28;20105;-58
2023/05/26 07:18:32;;;;;;;2.20;2.08;;;;;;;;;;4244122;28;20051;-58
2023/05/26 07:20:52;;;;;;;2.30;2.20;;;;;;;;;;4240547;28;20081;-58
2023/05/26 07:23:13;;;;;;;2.45;2.38;;;;;;;;;;4237659;28;20785;-58
2023/05/26 07:25:33;;;;;;;2.85;2.00;;;;;;;;;;4245732;28;20046;-58
2023/05/26 07:27:53;;;;;;;2.40;2.17;;;;;;;;;;4246157;28;20051;-58
2023/05/26 07:30:13;;;;;;;3.20;1.48;;;;;;;;;;4240487;28;20227;-58
2023/05/26 07:32:33;;;;;;;1.70;1.60;;;;;;;;;;4240800;28;20403;-58
2023/05/26 07:34:54;;;;;;;2.10;1.60;;;;;;;;;;4244985;28;20147;-59
2023/05/26 07:37:14;;;;;;;1.45;1.40;;;;;;;;;;4250586;28;20049;-59
2023/05/26 07:39:34;;;;;;;4.45;2.03;;;;;;;;;;4248560;28;20230;-63
2023/05/26 07:41:54;;;;;;;1.85;1.75;;;;;;;;;;4245449;28;20089;-63
2023/05/26 07:44:14;;;;;;;2.20;1.27;;;;;;;;;;4249836;28;20358;-63
2023/05/26 07:46:35;;;;;;;1.50;1.50;;;;;;;;;;4246790;28;20074;-63
2023/05/26 07:48:55;;;;;;;1.20;1.20;;;;;;;;;;4243417;28;20084;-63
2023/05/26 07:51:15;;;;;;;3.75;1.65;;;;;;;;;;4247640;28;20042;-63
2023/05/26 07:53:36;;;;;;;1.30;1.20;;;;;;;;;;4246011;28;20045;-63
2023/05/26 07:55:56;;;;;;;1.50;1.40;;;;;;;;;;4240999;28;20069;-63
2023/05/26 07:58:16;;;;;;;3.15;1.30;;;;;;;;;;4240588;28;20050;-63
2023/05/26 08:00:37;;;;;;;1.73;1.17;;;;;;;;;;4247054;28;20234;-63
2023/05/26 08:02:57;;;;;;;1.48;1.20;;;;;;;;;;4241234;28;20042;-63
2023/05/26 08:05:18;;;;;;;1.20;1.20;;;;;;;;;;4235776;28;20371;-63
2023/05/26 08:07:38;;;;;;;2.47;1.25;;;;;;;;;;4236830;28;20081;-63
2023/05/26 08:09:59;;;;;;;1.75;1.10;;;;;;;;;;4240291;28;20046;-63
2023/05/26 08:12:18;;;;;;;3.33;1.20;;;;;;;;;;4235176;28;20046;-63
2023/05/26 08:14:39;;;;;;;1.13;1.13;;;;;;;;;;4233335;28;20049;-63
2023/05/26 08:16:59;;;;;;;1.00;1.00;;;;;;;;;;4235782;28;20058;-63
2023/05/26 08:19:20;;;;;;;1.02;1.02;;;;;;;;;;4240681;28;20382;-63
2023/05/26 08:21:40;;;;;;;0.90;0.90;;;;;;;;;;4238435;28;20050;-63
2023/05/26 08:24:00;;;;;;;1.73;1.42;;;;;;;;;;4242265;28;20081;-63
2023/05/26 08:26:21;;;;;;;1.00;1.00;;;;;;;;;;4242173;28;20043;-63
2023/05/26 08:28:41;;;;;;;1.10;1.10;;;;;;;;;;4240289;28;20419;-63
2023/05/26 08:31:02;;;;;;;2.17;1.27;;;;;;;;;;4238565;28;20685;-63
2023/05/26 08:33:22;;;;;;;7.78;1.10;;;;;;;;;;4237742;28;20415;-63
2023/05/26 08:35:42;;;;;;;1.50;0.98;;;;;;;;;;4237924;28;20138;-64
2023/05/26 08:38:03;;;;;;;0.90;0.90;;;;;;;;;;4235982;28;20050;-64
2023/05/26 08:40:23;;;;;;;1.00;1.00;;;;;;;;;;4239468;28;20081;-64
2023/05/26 08:42:49;;;;;;;1.63;1.10;;;;;;;;;;4233516;28;20043;-64
2023/05/26 08:45:10;;;;;;;1.10;1.10;;;;;;;;;;4236182;28;20096;-63
2023/05/26 08:47:37;;;;;;;2.78;1.05;;;;;;;;;;4237158;28;20062;-64
2023/05/26 08:50:01;;;;;;;1.77;1.00;;;;;;;;;;4242873;28;20046;-64
2023/05/26 08:52:22;;;;;;;2.17;0.90;;;;;;;;;;4236915;28;20093;-64
2023/05/26 08:54:42;;;;;;;1.42;0.95;;;;;;;;;;4240387;28;20085;-64
2023/05/26 08:57:04;;;;;;;1.48;1.00;;;;;;;;;;4240875;28;20051;-64
2023/05/26 08:59:25;;;;;;;0.80;0.80;;;;;;;;;;4239172;28;20080;-63
2023/05/26 09:01:45;;;;;;;1.52;0.90;;;;;;;;;;4235379;28;20045;-64
2023/05/26 09:04:05;;;;;;;0.80;0.80;;;;;;;;;;4241176;28;20059;-64
2023/05/26 09:06:25;;;;;;;0.93;0.93;;;;;;;;;;4250156;28;20128;-63
2023/05/26 09:08:46;;;;;;;0.85;0.85;;;;;;;;;;4249014;28;20273;-64
2023/05/26 09:11:23;;;;;;;5.35;1.00;;;;;;;;;;4244409;28;20074;-64
2023/05/26 09:13:43;;;;;;;0.93;0.93;;;;;;;;;;4245656;28;20069;-64
2023/05/26 09:16:03;;;;;;;0.80;0.80;;;;;;;;;;4243146;28;20084;-64
2023/05/26 09:18:41;;;;;;;1.15;0.90;;;;;;;;;;4242157;28;20070;-63
2023/05/26 09:21:04;;;;;;;2.78;0.90;;;;;;;;;;4247375;28;20428;-64
2023/05/26 09:23:27;;;;;;;0.80;0.80;;;;;;;;;;4240732;28;20047;-64
2023/05/26 09:25:50;;;;;;;1.83;0.82;;;;;;;;;;4236394;28;20347;-64
2023/05/26 09:28:11;;;;;;;0.88;0.88;;;;;;;;;;4243396;28;20042;-63
2023/05/26 09:30:42;;;;;;;2.15;0.90;;;;;;;;;;4248734;28;20046;-63
2023/05/26 09:33:08;;;;;;;0.80;0.80;;;;;;;;;;4238130;28;20185;-64
2023/05/26 09:35:33;;;;;;;1.40;0.80;;;;;;;;;;4240681;28;20566;-63
2023/05/26 09:37:55;;;;;;;1.65;0.90;;;;;;;;;;4242821;28;20254;-64
2023/05/26 09:40:15;;;;;;;1.10;1.10;;;;;;;;;;4244519;28;20042;-64
2023/05/26 09:42:37;;;;;;;0.80;0.80;;;;;;;;;;4235067;28;20047;-64
2023/05/26 09:44:57;;;;;;;1.08;0.82;;;;;;;;;;4243389;28;20070;-64
2023/05/26 09:47:21;;;;;;;0.70;0.70;;;;;;;;;;4242439;28;20073;-64
2023/05/26 09:49:41;;;;;;;0.95;0.95;;;;;;;;;;4241546;28;20393;-63
2023/05/26 09:52:02;;;;;;;0.90;0.90;;;;;;;;;;4239093;28;20042;-64
2023/05/26 09:54:33;;;;;;;1.15;0.80;;;;;;;;;;4239559;28;20111;-63
2023/05/26 09:56:57;;;;;;;0.80;0.80;;;;;;;;;;4240693;28;20055;-63
2023/05/26 09:59:18;;;;;;;2.75;0.80;;;;;;;;;;4240374;28;20055;-63
2023/05/26 10:01:38;;;;;;;1.90;1.08;;;;;;;;;;4239877;28;20103;-63
2023/05/26 10:03:59;;;;;;;1.50;0.80;;;;;;;;;;4237229;28;20081;-63
2023/05/26 10:06:20;;;;;;;0.90;0.80;;;;;;;;;;4242595;28;20068;-64
2023/05/26 10:08:42;;;;;;;0.80;0.80;;;;;;;;;;4238299;28;20085;-63
2023/05/26 10:11:02;;;;;;;2.17;0.70;;;;;;;;;;4239289;28;20046;-64
2023/05/26 10:13:23;;;;;;;2.00;0.80;;;;;;;;;;4233353;28;20062;-64
2023/05/26 10:15:45;;;;;;;1.63;0.88;;;;;;;;;;4244070;28;20266;-64
2023/05/26 10:18:06;;;;;;;1.83;0.70;;;;;;;;;;4243197;27;20442;-64
2023/05/26 10:20:26;;;;;;;0.70;0.70;;;;;;;;;;4241567;28;20061;-64
2023/05/26 10:22:55;;;;;;;1.42;0.70;;;;;;;;;;4237484;28;20043;-64
2023/05/26 10:25:16;;;;;;;0.60;0.60;;;;;;;;;;4240376;28;20054;-64
2023/05/26 10:27:41;;;;;;;0.77;0.77;;;;;;;;;;4243199;28;20097;-64
2023/05/26 10:30:08;;;;;;;0.70;0.70;;;;;;;;;;4236422;28;20416;-64
2023/05/26 10:32:41;;;;;;;0.70;0.70;;;;;;;;;;4241438;28;20065;-63
2023/05/26 10:35:01;;;;;;;0.70;0.70;;;;;;;;;;4237296;28;20516;-64
2023/05/26 10:37:21;;;;;;;0.70;0.70;;;;;;;;;;4244056;28;20080;-64
2023/05/26 10:39:41;;;;;;;1.05;0.75;;;;;;;;;;4241296;28;20061;-64
2023/05/26 10:42:15;;;;;;;2.70;0.70;;;;;;;;;;4242365;28;20050;-64
2023/05/26 10:44:55;;;;;;;0.65;0.65;;;;;;;;;;4237853;28;20107;-63
2023/05/26 10:47:16;;;;;;;1.85;0.70;;;;;;;;;;4243943;28;20035;-63
2023/05/26 10:49:37;;;;;;;2.25;0.70;;;;;;;;;;4235882;28;20054;-64
2023/05/26 10:51:57;;;;;;;0.70;0.70;;;;;;;;;;4244726;28;20361;-64
2023/05/26 10:54:21;;;;;;;1.67;0.70;;;;;;;;;;4238390;28;20049;-64
2023/05/26 10:56:42;;;;;;;0.60;0.60;;;;;;;;;;4243720;28;20051;-64
2023/05/26 10:59:03;;;;;;;0.60;0.60;;;;;;;;;;4233058;28;20043;-64
2023/05/26 11:01:27;;;;;;;1.60;0.60;;;;;;;;;;4243732;28;20255;-64
2023/05/26 11:03:49;;;;;;;0.70;0.70;;;;;;;;;;4248904;28;20141;-64
2023/05/26 11:06:10;;;;;;;0.60;0.60;;;;;;;;;;4238421;28;20047;-64
2023/05/26 11:08:36;;;;;;;0.70;0.70;;;;;;;;;;4239831;28;20092;-64
2023/05/26 11:11:00;;;;;;;0.70;0.70;;;;;;;;;;4242018;28;20060;-64
2023/05/26 11:13:42;;;;;;;0.70;0.70;;;;;;;;;;4240916;28;20127;-63
2023/05/26 11:16:19;;;;;;;7.18;0.90;;;;;;;;;;4234145;28;20051;-58
2023/05/26 11:18:40;;;;;;;0.60;0.60;;;;;;;;;;4242867;28;20059;-58
2023/05/26 11:21:00;;;;;;;1.65;0.70;;;;;;;;;;4241787;28;20059;-58
2023/05/26 11:23:21;;;;;;;1.05;0.70;;;;;;;;;;4235948;28;20051;-58
2023/05/26 11:25:48;;;;;;;0.80;0.80;;;;;;;;;;4235401;28;20049;-58
2023/05/26 11:28:08;;;;;;;0.63;0.60;;;;;;;;;;4241749;28;20090;-58
2023/05/26 11:30:35;;;;;;;0.68;0.68;;;;;;;;;;4240356;28;20043;-58
2023/05/26 11:32:55;;;;;;;0.70;0.70;;;;;;;;;;4236593;28;20046;-58
2023/05/26 11:35:25;;;;;;;2.35;0.70;;;;;;;;;;4236213;28;20058;-58
2023/05/26 11:37:46;;;;;;;1.38;0.70;;;;;;;;;;4236012;28;20042;-58
2023/05/26 11:40:07;;;;;;;1.20;0.68;;;;;;;;;;4242385;28;20070;-58
2023/05/26 11:42:27;;;;;;;3.22;0.80;;;;;;;;;;4245732;28;20061;-58
2023/05/26 11:44:48;;;;;;;1.20;0.70;;;;;;;;;;4239020;28;20047;-58
2023/05/26 11:47:11;;;;;;;2.55;0.65;;;;;;;;;;4241423;28;20373;-58
2023/05/26 11:49:31;;;;;;;0.95;0.70;;;;;;;;;;4245016;28;20075;-57
2023/05/26 11:51:52;;;;;;;0.70;0.70;;;;;;;;;;4243622;28;20084;-58
2023/05/26 11:54:12;;;;;;;0.60;0.60;;;;;;;;;;4241430;28;20336;-58
2023/05/26 11:56:36;;;;;;;0.60;0.60;;;;;;;;;;4240345;28;20370;-58
2023/05/26 11:58:56;;;;;;;0.83;0.80;;;;;;;;;;4243753;28;20050;-58
2023/05/26 12:01:17;;;;;;;1.23;0.70;;;;;;;;;;4239724;28;20050;-58
2023/05/26 12:03:41;;;;;;;0.63;0.63;;;;;;;;;;4239436;28;20106;-58
2023/05/26 12:06:21;;;;;;;0.70;0.70;;;;;;;;;;4236974;28;20054;-58
2023/05/26 12:08:50;;;;;;;1.58;0.70;;;;;;;;;;4239386;28;20088;-58
2023/05/26 12:11:17;;;;;;;0.73;0.73;;;;;;;;;;4244665;28;20081;-58
2023/05/26 12:13:39;;;;;;;1.60;0.80;;;;;;;;;;4243286;28;20078;-58
2023/05/26 12:16:00;;;;;;;0.70;0.70;;;;;;;;;;4246767;28;20090;-58
2023/05/26 12:18:24;;;;;;;0.60;0.60;;;;;;;;;;4244374;28;20151;-58
2023/05/26 12:20:44;;;;;;;1.17;0.68;;;;;;;;;;4243681;28;20276;-58
2023/05/26 12:23:08;;;;;;;0.75;0.75;;;;;;;;;;4243993;28;20074;-58
2023/05/26 12:25:31;;;;;;;0.60;0.60;;;;;;;;;;4243118;28;20412;-58
2023/05/26 12:27:51;;;;;;;0.60;0.60;;;;;;;;;;4241491;28;20236;-57
2023/05/26 12:30:19;;;;;;;0.68;0.60;;;;;;;;;;4238360;28;20047;-58
2023/05/26 12:32:39;;;;;;;0.60;0.60;;;;;;;;;;4242577;28;20050;-58
2023/05/26 12:34:59;;;;;;;0.80;0.60;;;;;;;;;;4237809;28;20166;-58
2023/05/26 12:37:20;;;;;;;0.75;0.60;;;;;;;;;;4235382;28;20046;-58
2023/05/26 12:39:40;;;;;;;0.65;0.60;;;;;;;;;;4243196;28;20069;-57
2023/05/26 12:42:01;;;;;;;0.85;0.85;;;;;;;;;;4238944;28;20095;-58
2023/05/26 12:44:22;;;;;;;1.55;0.90;;;;;;;;;;4233846;28;20042;-58
2023/05/26 12:46:43;;;;;;;1.65;0.60;;;;;;;;;;4230614;28;20107;-58
2023/05/26 12:49:03;;;;;;;0.90;0.82;;;;;;;;;;4238408;28;20043;-58
2023/05/26 12:51:25;;;;;;;0.60;0.60;;;;;;;;;;4235658;28;20107;-58
2023/05/26 12:53:46;;;;;;;0.60;0.60;;;;;;;;;;4230642;28;20154;-57
2023/05/26 12:56:06;;;;;;;2.30;0.70;;;;;;;;;;4238122;28;20050;-58
2023/05/26 12:58:27;;;;;;;0.60;0.60;;;;;;;;;;4238852;28;20251;-58
2023/05/26 13:00:47;;;;;;;0.68;0.60;;;;;;;;;;4238495;28;20046;-57
2023/05/26 13:03:07;;;;;;;1.33;0.60;;;;;;;;;;4233056;28;20086;-63
2023/05/26 13:05:28;;;;;;;0.60;0.60;;;;;;;;;;4243870;28;20054;-64
2023/05/26 13:07:48;;;;;;;0.60;0.60;;;;;;;;;;4249990;28;20047;-64
2023/05/26 13:10:09;;;;;;;0.70;0.68;;;;;;;;;;4245864;28;20316;-64
2023/05/26 13:12:30;;;;;;;0.82;0.70;;;;;;;;;;4245520;28;20059;-64
2023/05/26 13:14:50;;;;;;;0.60;0.60;;;;;;;;;;4241437;28;20051;-64
2023/05/26 13:17:10;;;;;;;0.70;0.70;;;;;;;;;;4244901;28;20373;-64
2023/05/26 13:19:31;;;;;;;0.60;0.60;;;;;;;;;;4243245;28;20371;-64
2023/05/26 13:21:51;;;;;;;2.60;0.60;;;;;;;;;;4243738;28;20109;-64
2023/05/26 13:24:11;;;;;;;0.90;0.60;;;;;;;;;;4242236;28;20085;-63
2023/05/26 13:26:31;;;;;;;0.60;0.60;;;;;;;;;;4237736;28;20108;-63
2023/05/26 13:28:52;;;;;;;2.58;0.70;;;;;;;;;;4240617;28;20069;-64
2023/05/26 13:31:12;;;;;;;0.82;0.68;;;;;;;;;;4238213;28;20142;-63
2023/05/26 13:33:32;;;;;;;0.98;0.60;;;;;;;;;;4240531;28;20088;-64
2023/05/26 13:35:52;;;;;;;0.70;0.70;;;;;;;;;;4239906;28;20099;-63
2023/05/26 13:38:13;;;;;;;0.60;0.60;;;;;;;;;;4237564;28;20085;-63
2023/05/26 13:40:33;;;;;;;0.60;0.60;;;;;;;;;;4238965;28;20054;-63
2023/05/26 13:42:53;;;;;;;1.60;0.70;;;;;;;;;;4243205;28;20365;-63
2023/05/26 13:45:15;;;;;;;1.52;0.70;;;;;;;;;;4242431;28;20058;-63
2023/05/26 13:47:35;;;;;;;1.23;0.70;;;;;;;;;;4239741;28;20301;-63
2023/05/26 13:49:56;;;;;;;0.70;0.70;;;;;;;;;;4241375;28;20096;-63
2023/05/26 13:52:32;;;;;;;0.90;0.68;;;;;;;;;;4238466;28;20105;-63
2023/05/26 13:54:52;;;;;;;0.70;0.70;;;;;;;;;;4242404;28;20242;-63
2023/05/26 13:57:13;;;;;;;0.70;0.70;;;;;;;;;;4238150;28;20047;-63
2023/05/26 13:59:33;;;;;;;1.45;0.70;;;;;;;;;;4241935;28;20134;-63
2023/05/26 14:01:53;;;;;;;0.93;0.77;;;;;;;;;;4245066;28;20092;-63
2023/05/26 14:04:13;;;;;;;0.75;0.75;;;;;;;;;;4240622;28;20085;-63
2023/05/26 14:06:35;;;;;;;0.70;0.70;;;;;;;;;;4238197;28;20419;-63
2023/05/26 14:08:58;;;;;;;0.60;0.60;;;;;;;;;;4241038;28;20081;-63